Time;durP1;ratioP1;P1;durP2;ratioP2;P2;SDS_P1;SDS_P2;PMS_P1;PMS_P2;Temp;Humidity;BMP_temperature;BMP_pressure;BME280_temperature;BME280_humidity;BME280_pressure;Samples;Min_cycle;Max_cycle;Signal;HPM_P1;HPM_P2
2022/01/12 00:00:18;;;;;;;48.55;25.02;;;;;;;;;;4996871;28;93513;-70
2022/01/12 00:02:44;;;;;;;51.05;25.73;;;;;;;;;;4997810;28;93015;-70
2022/01/12 00:05:11;;;;;;;47.55;26.02;;;;;;;;;;5000119;28;92415;-70
2022/01/12 00:07:37;;;;;;;53.17;26.80;;;;;;;;;;4997179;28;93502;-71
2022/01/12 00:10:04;;;;;;;58.13;26.10;;;;;;;;;;4995916;28;94717;-70
2022/01/12 00:12:30;;;;;;;50.88;25.45;;;;;;;;;;4997162;28;95707;-70
2022/01/12 00:14:57;;;;;;;50.17;25.02;;;;;;;;;;4996565;28;93716;-71
2022/01/12 00:17:23;;;;;;;46.17;25.65;;;;;;;;;;4997453;28;92321;-70
2022/01/12 00:19:49;;;;;;;56.08;27.27;;;;;;;;;;4996619;28;93952;-70
2022/01/12 00:22:16;;;;;;;47.38;26.10;;;;;;;;;;4997222;28;93384;-70
2022/01/12 00:33:10;;;;;;;58.08;27.05;;;;;;;;;;4995556;28;96031;-70
2022/01/12 00:35:44;;;;;;;47.13;25.73;;;;;;;;;;4993783;28;99040;-70
2022/01/12 00:38:11;;;;;;;49.58;25.98;;;;;;;;;;4996648;28;92255;-70
2022/01/12 00:40:39;;;;;;;47.22;25.15;;;;;;;;;;4996506;28;93771;-70
2022/01/12 00:43:05;;;;;;;48.97;26.58;;;;;;;;;;4996751;28;93665;-71
2022/01/12 00:45:33;;;;;;;45.33;24.02;;;;;;;;;;4996750;28;92275;-70
2022/01/12 00:47:59;;;;;;;43.70;24.15;;;;;;;;;;4998405;28;94054;-70
2022/01/12 00:50:26;;;;;;;45.50;25.33;;;;;;;;;;4994951;28;92409;-70
2022/01/12 00:52:53;;;;;;;47.13;25.85;;;;;;;;;;4996814;28;93345;-70
2022/01/12 00:55:20;;;;;;;51.42;25.77;;;;;;;;;;4995283;28;95893;-70
2022/01/12 00:57:47;;;;;;;49.20;26.67;;;;;;;;;;4995303;28;93606;-70
2022/01/12 01:00:14;;;;;;;44.70;25.65;;;;;;;;;;4994693;28;94673;-70
2022/01/12 01:02:40;;;;;;;44.65;25.92;;;;;;;;;;4996267;28;93760;-69
2022/01/12 01:05:07;;;;;;;47.20;26.15;;;;;;;;;;4995851;28;92329;-69
2022/01/12 01:07:33;;;;;;;44.05;24.50;;;;;;;;;;4995097;28;95540;-70
2022/01/12 01:10:06;;;;;;;43.78;26.60;;;;;;;;;;4998046;28;95501;-69
2022/01/12 01:12:35;;;;;;;45.58;25.35;;;;;;;;;;4994943;28;94843;-69
2022/01/12 01:15:08;;;;;;;49.40;26.25;;;;;;;;;;4994892;28;96451;-70
2022/01/12 01:25:37;;;;;;;52.38;27.10;;;;;;;;;;4993337;28;94814;-70
2022/01/12 01:28:05;;;;;;;48.97;26.98;;;;;;;;;;4994401;28;98143;-70
2022/01/12 01:30:35;;;;;;;47.85;26.60;;;;;;;;;;4994942;28;96279;-70
2022/01/12 01:33:06;;;;;;;49.72;27.38;;;;;;;;;;4997947;28;93033;-70
2022/01/12 01:35:34;;;;;;;53.22;29.33;;;;;;;;;;4994696;28;95673;-70
2022/01/12 01:38:02;;;;;;;52.75;29.33;;;;;;;;;;4994734;28;92995;-71
2022/01/12 01:40:30;;;;;;;51.88;28.52;;;;;;;;;;4994123;28;95316;-70
2022/01/12 01:53:45;;;;;;;52.78;27.60;;;;;;;;;;4994673;28;93151;-70
2022/01/12 01:56:12;;;;;;;49.30;27.38;;;;;;;;;;4997605;28;95788;-70
2022/01/12 01:58:39;;;;;;;53.63;29.42;;;;;;;;;;4995599;28;92761;-70
2022/01/12 02:01:05;;;;;;;54.53;28.17;;;;;;;;;;4994502;28;96576;-70
2022/01/12 02:03:37;;;;;;;;;;;;;;;;;;4994774;28;95409;-70
2022/01/12 02:06:06;;;;;;;55.83;27.20;;;;;;;;;;5012051;28;92375;-70
2022/01/12 02:08:33;;;;;;;51.30;28.55;;;;;;;;;;5011188;28;95632;-70
2022/01/12 02:11:26;;;;;;;54.20;28.58;;;;;;;;;;5017165;28;95543;-71
2022/01/12 02:13:57;;;;;;;55.88;27.98;;;;;;;;;;5017472;28;92424;-70
2022/01/12 02:16:34;;;;;;;57.15;27.30;;;;;;;;;;5017346;28;94665;-70
2022/01/12 02:19:16;;;;;;;50.50;28.23;;;;;;;;;;5020131;28;96054;-71
2022/01/12 02:40:32;;;;;;;56.50;27.20;;;;;;;;;;5018620;28;93877;-71
2022/01/12 02:43:14;;;;;;;60.17;29.45;;;;;;;;;;5019544;28;95051;-70
2022/01/12 02:53:39;;;;;;;68.10;30.60;;;;;;;;;;5016561;28;96775;-70
2022/01/12 02:56:18;;;;;;;60.22;28.98;;;;;;;;;;5017045;28;92534;-70
2022/01/12 02:58:46;;;;;;;62.53;28.23;;;;;;;;;;5017130;28;95999;-72
2022/01/12 03:04:13;;;;;;;65.70;30.63;;;;;;;;;;4997328;28;92418;-70
2022/01/12 03:06:42;;;;;;;62.63;30.95;;;;;;;;;;5017964;28;93648;-71
2022/01/12 03:09:09;;;;;;;66.78;30.55;;;;;;;;;;5015117;28;94702;-71
2022/01/12 03:11:36;;;;;;;65.95;31.48;;;;;;;;;;5016854;28;98119;-71
2022/01/12 03:14:11;;;;;;;71.05;30.27;;;;;;;;;;5016566;28;95575;-71
2022/01/12 03:16:38;;;;;;;64.32;32.00;;;;;;;;;;5016346;28;93179;-71
2022/01/12 03:19:11;;;;;;;66.97;31.10;;;;;;;;;;5016392;28;94927;-71
2022/01/12 03:21:37;;;;;;;68.88;32.28;;;;;;;;;;5015356;28;95557;-70
2022/01/12 03:24:08;;;;;;;72.13;31.90;;;;;;;;;;5016445;28;92952;-70
2022/01/12 03:26:35;;;;;;;75.60;32.80;;;;;;;;;;5021491;28;93327;-71
2022/01/12 03:29:02;;;;;;;75.07;32.05;;;;;;;;;;5016099;28;93083;-71
2022/01/12 03:31:31;;;;;;;70.20;32.63;;;;;;;;;;5016538;28;95601;-71
2022/01/12 03:34:05;;;;;;;68.15;31.45;;;;;;;;;;5015768;28;96624;-71
2022/01/12 03:39:14;;;;;;;67.75;32.42;;;;;;;;;;5016426;28;95899;-70
2022/01/12 03:41:43;;;;;;;72.72;32.50;;;;;;;;;;5016401;28;94882;-70
2022/01/12 03:44:13;;;;;;;66.65;32.22;;;;;;;;;;5016176;28;92958;-70
2022/01/12 03:46:46;;;;;;;73.10;32.47;;;;;;;;;;5017317;28;93289;-70
2022/01/12 03:49:16;;;;;;;68.28;30.42;;;;;;;;;;5019338;28;95258;-70
2022/01/12 03:51:45;;;;;;;63.42;31.20;;;;;;;;;;5016705;28;95363;-70
2022/01/12 03:54:12;;;;;;;64.22;28.75;;;;;;;;;;5015940;28;96245;-70
2022/01/12 03:56:40;;;;;;;54.67;29.02;;;;;;;;;;5016209;28;93055;-71
2022/01/12 03:59:06;;;;;;;61.88;29.88;;;;;;;;;;5014601;28;94734;-70
2022/01/12 04:01:35;;;;;;;59.33;30.25;;;;;;;;;;5016215;28;95883;-70
2022/01/12 04:04:06;;;;;;;53.67;29.13;;;;;;;;;;5015762;28;92379;-71
2022/01/12 04:09:38;;;;;;;66.22;29.13;;;;;;;;;;5017142;28;93502;-71
2022/01/12 04:12:06;;;;;;;73.75;30.88;;;;;;;;;;5020153;28;92301;-70
2022/01/12 04:14:32;;;;;;;67.40;30.40;;;;;;;;;;5015772;28;95569;-70
2022/01/12 04:16:58;;;;;;;69.35;31.65;;;;;;;;;;5015568;28;93116;-70
2022/01/12 04:19:27;;;;;;;65.35;30.58;;;;;;;;;;5015541;28;95665;-71
2022/01/12 04:21:53;;;;;;;69.07;31.35;;;;;;;;;;5015767;28;96071;-70
2022/01/12 04:24:19;;;;;;;73.88;32.90;;;;;;;;;;5015413;28;94725;-71
2022/01/12 04:26:46;;;;;;;65.10;31.95;;;;;;;;;;5015725;28;98463;-70
2022/01/12 04:29:13;;;;;;;70.97;31.80;;;;;;;;;;5016270;28;93528;-71
2022/01/12 04:31:40;;;;;;;79.65;32.47;;;;;;;;;;5015120;28;92434;-70
2022/01/12 04:34:08;;;;;;;60.05;30.30;;;;;;;;;;5018027;28;95459;-70
2022/01/12 04:36:35;;;;;;;64.60;30.60;;;;;;;;;;5016830;28;92438;-70
2022/01/12 04:39:02;;;;;;;85.60;33.63;;;;;;;;;;5015305;28;96317;-71
2022/01/12 04:41:28;;;;;;;70.72;32.00;;;;;;;;;;5015823;28;94513;-70
2022/01/12 04:43:57;;;;;;;80.22;31.30;;;;;;;;;;5014927;28;93113;-71
2022/01/12 04:46:31;;;;;;;95.18;33.63;;;;;;;;;;5016475;28;93074;-70
2022/01/12 04:49:20;;;;;;;60.22;29.23;;;;;;;;;;5014914;28;95831;-71
2022/01/12 04:51:46;;;;;;;80.68;30.55;;;;;;;;;;5016649;28;92391;-70
2022/01/12 04:54:13;;;;;;;75.25;32.22;;;;;;;;;;5016369;28;93719;-71
2022/01/12 04:56:39;;;;;;;83.43;31.10;;;;;;;;;;5017957;28;96586;-70
2022/01/12 04:59:07;;;;;;;122.18;35.30;;;;;;;;;;5015277;28;95656;-70
2022/01/12 05:01:47;;;;;;;64.05;30.45;;;;;;;;;;5016170;28;92581;-70
2022/01/12 05:07:23;;;;;;;74.90;32.22;;;;;;;;;;5015166;28;95593;-70
2022/01/12 05:12:47;;;;;;;;;;;;;;;;;;5015351;28;96388;-70
2022/01/12 05:12:53;;;;;;;110.50;32.35;;;;;;;;;;5016005;28;92227;-70
2022/01/12 05:15:32;;;;;;;147.75;35.50;;;;;;;;;;5013182;28;96192;-71
2022/01/12 05:17:58;;;;;;;180.35;36.40;;;;;;;;;;5017537;28;96251;-70
2022/01/12 05:20:25;;;;;;;99.30;34.45;;;;;;;;;;5014835;28;96057;-70
2022/01/12 05:22:52;;;;;;;90.20;33.78;;;;;;;;;;5014850;28;95977;-70
2022/01/12 05:25:19;;;;;;;97.40;33.85;;;;;;;;;;5016046;28;92217;-71
2022/01/12 05:27:46;;;;;;;80.40;34.20;;;;;;;;;;5016071;28;93320;-70
2022/01/12 05:30:13;;;;;;;80.63;33.45;;;;;;;;;;5015688;28;93394;-70
2022/01/12 05:32:42;;;;;;;82.80;34.05;;;;;;;;;;5015283;28;91928;-70
2022/01/12 05:35:12;;;;;;;109.03;34.60;;;;;;;;;;5014714;28;94816;-70
2022/01/12 05:37:39;;;;;;;155.90;37.17;;;;;;;;;;5014591;28;96306;-70
2022/01/12 05:40:06;;;;;;;81.90;32.80;;;;;;;;;;5016115;28;94812;-70
2022/01/12 05:42:33;;;;;;;88.15;33.22;;;;;;;;;;5014098;28;96040;-71
2022/01/12 05:45:00;;;;;;;113.82;35.33;;;;;;;;;;5015794;28;92300;-70
2022/01/12 05:47:39;;;;;;;131.38;37.10;;;;;;;;;;5018038;28;95807;-71
2022/01/12 05:50:07;;;;;;;107.90;36.42;;;;;;;;;;5018024;28;95545;-70
2022/01/12 05:52:34;;;;;;;116.82;34.92;;;;;;;;;;5019489;28;92463;-71
2022/01/12 05:55:02;;;;;;;80.35;33.88;;;;;;;;;;5017608;28;95907;-70
2022/01/12 05:57:30;;;;;;;75.22;33.70;;;;;;;;;;5018307;28;95240;-70
2022/01/12 05:59:57;;;;;;;109.20;34.75;;;;;;;;;;5017854;28;92387;-70
2022/01/12 06:02:25;;;;;;;66.32;32.30;;;;;;;;;;5021011;28;96130;-70
2022/01/12 06:04:52;;;;;;;106.32;36.05;;;;;;;;;;5016284;28;94750;-70
2022/01/12 06:07:18;;;;;;;106.50;34.20;;;;;;;;;;5017465;28;98078;-70
2022/01/12 06:09:45;;;;;;;88.15;34.65;;;;;;;;;;5017534;28;95545;-71
2022/01/12 06:12:12;;;;;;;110.97;35.13;;;;;;;;;;5017872;28;92852;-70
2022/01/12 06:14:40;;;;;;;83.70;34.72;;;;;;;;;;5017745;28;95225;-70
2022/01/12 06:17:08;;;;;;;77.35;32.97;;;;;;;;;;5017446;28;95601;-70
2022/01/12 06:19:35;;;;;;;95.07;34.33;;;;;;;;;;5017633;28;93403;-70
2022/01/12 06:22:17;;;;;;;87.88;34.13;;;;;;;;;;5017830;28;96580;-70
2022/01/12 06:24:44;;;;;;;77.57;32.75;;;;;;;;;;5020504;28;95467;-70
2022/01/12 06:27:14;;;;;;;93.47;34.42;;;;;;;;;;5001032;28;96289;-70
2022/01/12 06:29:44;;;;;;;73.78;33.58;;;;;;;;;;5016820;28;95087;-70
2022/01/12 06:32:11;;;;;;;74.68;34.13;;;;;;;;;;5018736;28;92790;-71
2022/01/12 06:34:38;;;;;;;69.85;33.60;;;;;;;;;;5018274;28;93465;-71
2022/01/12 06:37:04;;;;;;;85.43;33.65;;;;;;;;;;5018461;28;93369;-71
2022/01/12 06:39:30;;;;;;;64.47;31.42;;;;;;;;;;5018615;28;92204;-70
2022/01/12 06:41:57;;;;;;;86.57;32.90;;;;;;;;;;5017244;28;94382;-71
2022/01/12 06:44:25;;;;;;;75.55;32.50;;;;;;;;;;5017239;28;95919;-71
2022/01/12 06:46:55;;;;;;;77.65;33.45;;;;;;;;;;5020618;28;91571;-71
2022/01/12 06:49:22;;;;;;;78.90;33.30;;;;;;;;;;5017048;28;97334;-70
2022/01/12 06:51:50;;;;;;;74.55;32.47;;;;;;;;;;5017062;28;92882;-71
2022/01/12 06:54:16;;;;;;;68.28;31.33;;;;;;;;;;5015375;28;96742;-71
2022/01/12 06:56:43;;;;;;;70.20;32.33;;;;;;;;;;5016593;28;95999;-71
2022/01/12 06:59:09;;;;;;;68.53;31.73;;;;;;;;;;5018277;28;92321;-70
2022/01/12 07:01:37;;;;;;;66.32;31.00;;;;;;;;;;5016367;28;95893;-71
2022/01/12 07:04:05;;;;;;;69.25;31.05;;;;;;;;;;5016860;28;95400;-70
2022/01/12 07:06:34;;;;;;;62.60;30.15;;;;;;;;;;5016801;28;92763;-71
2022/01/12 07:09:01;;;;;;;62.42;29.15;;;;;;;;;;5003476;28;95405;-71
2022/01/12 07:11:50;;;;;;;56.20;28.48;;;;;;;;;;5018093;28;91623;-70
2022/01/12 07:14:26;;;;;;;61.55;28.73;;;;;;;;;;5016703;28;95473;-70
2022/01/12 07:16:54;;;;;;;59.83;29.63;;;;;;;;;;5016085;28;95602;-69
2022/01/12 07:19:22;;;;;;;59.38;27.35;;;;;;;;;;5014868;28;94910;-70
2022/01/12 07:21:49;;;;;;;64.63;29.00;;;;;;;;;;5016432;28;98524;-70
2022/01/12 07:24:15;;;;;;;61.58;28.08;;;;;;;;;;5017807;28;93437;-70
2022/01/12 07:26:41;;;;;;;57.42;27.42;;;;;;;;;;5016580;28;92344;-70
2022/01/12 07:29:11;;;;;;;63.00;28.67;;;;;;;;;;5020739;28;93749;-70
2022/01/12 07:31:37;;;;;;;59.38;25.60;;;;;;;;;;5017669;28;92326;-70
2022/01/12 07:34:03;;;;;;;63.70;26.58;;;;;;;;;;5017866;28;93343;-70
2022/01/12 07:36:30;;;;;;;61.38;27.05;;;;;;;;;;5017104;28;93279;-70
2022/01/12 07:38:59;;;;;;;61.55;27.30;;;;;;;;;;5016567;28;92230;-71
2022/01/12 07:41:25;;;;;;;66.63;28.05;;;;;;;;;;5017058;28;92860;-70
2022/01/12 07:43:51;;;;;;;56.05;25.67;;;;;;;;;;5015774;28;95259;-71
2022/01/12 07:46:18;;;;;;;62.90;25.83;;;;;;;;;;5016298;28;92280;-70
2022/01/12 07:48:44;;;;;;;63.75;25.85;;;;;;;;;;5017332;28;93533;-71
2022/01/12 07:51:11;;;;;;;54.38;25.35;;;;;;;;;;5020373;28;93657;-71
2022/01/12 07:53:37;;;;;;;57.88;26.88;;;;;;;;;;5017099;28;93342;-72
2022/01/12 07:56:04;;;;;;;62.65;28.27;;;;;;;;;;5016672;28;93190;-71
2022/01/12 07:58:30;;;;;;;64.80;28.48;;;;;;;;;;5017131;28;92240;-72
2022/01/12 08:00:57;;;;;;;67.03;27.27;;;;;;;;;;5017606;28;94052;-71
2022/01/12 08:03:23;;;;;;;68.20;24.48;;;;;;;;;;5016997;28;92633;-71
2022/01/12 08:05:50;;;;;;;64.25;21.48;;;;;;;;;;5016817;28;92302;-70
2022/01/12 08:08:17;;;;;;;67.75;22.25;;;;;;;;;;5014713;28;94573;-70
2022/01/12 08:10:44;;;;;;;62.70;20.42;;;;;;;;;;5015245;28;97469;-70
2022/01/12 08:13:10;;;;;;;71.32;19.02;;;;;;;;;;5018900;28;92422;-70
2022/01/12 08:15:37;;;;;;;70.30;19.05;;;;;;;;;;5016984;28;93182;-71
2022/01/12 08:18:04;;;;;;;70.22;19.60;;;;;;;;;;5015950;28;92314;-71
2022/01/12 08:20:30;;;;;;;67.97;18.45;;;;;;;;;;5016652;28;93513;-71
2022/01/12 08:22:57;;;;;;;82.47;20.17;;;;;;;;;;5016572;28;93568;-71
2022/01/12 08:25:24;;;;;;;64.38;20.48;;;;;;;;;;5017117;28;91654;-71
2022/01/12 08:27:51;;;;;;;67.88;18.60;;;;;;;;;;5016875;28;92331;-72
2022/01/12 08:30:19;;;;;;;67.22;19.73;;;;;;;;;;5015386;28;93566;-70
2022/01/12 08:32:49;;;;;;;67.43;20.20;;;;;;;;;;5014116;28;94816;-71
2022/01/12 08:35:16;;;;;;;60.60;19.13;;;;;;;;;;5019794;28;96055;-70
2022/01/12 08:37:43;;;;;;;68.60;19.17;;;;;;;;;;5016279;28;92184;-71
2022/01/12 08:40:10;;;;;;;60.97;18.23;;;;;;;;;;5016629;28;93754;-71
2022/01/12 08:42:37;;;;;;;57.42;17.95;;;;;;;;;;5016319;28;93797;-72
2022/01/12 08:45:04;;;;;;;60.25;17.15;;;;;;;;;;5016691;28;92253;-70
2022/01/12 08:47:31;;;;;;;42.03;15.35;;;;;;;;;;5016698;28;93473;-70
2022/01/12 08:49:57;;;;;;;52.80;17.17;;;;;;;;;;5017071;28;92972;-71
2022/01/12 08:52:24;;;;;;;51.28;15.70;;;;;;;;;;5016236;28;92406;-71
2022/01/12 08:54:51;;;;;;;51.80;16.73;;;;;;;;;;5016365;28;93253;-70
2022/01/12 08:57:17;;;;;;;51.92;16.60;;;;;;;;;;5017652;28;95427;-69
2022/01/12 08:59:44;;;;;;;49.08;14.80;;;;;;;;;;5015918;28;95859;-70
2022/01/12 09:02:14;;;;;;;45.45;15.30;;;;;;;;;;5015950;28;93618;-70
2022/01/12 09:04:42;;;;;;;39.55;13.25;;;;;;;;;;5015881;28;92795;-70
2022/01/12 09:07:09;;;;;;;40.88;13.80;;;;;;;;;;5016288;28;93713;-70
2022/01/12 09:09:35;;;;;;;47.33;13.68;;;;;;;;;;5015968;28;93675;-71
2022/01/12 09:12:03;;;;;;;42.53;13.88;;;;;;;;;;5016142;28;92375;-71
2022/01/12 09:14:30;;;;;;;58.25;16.27;;;;;;;;;;5016707;28;92584;-70
2022/01/12 09:16:57;;;;;;;38.83;14.00;;;;;;;;;;5015969;28;92713;-70
2022/01/12 09:19:24;;;;;;;39.67;14.77;;;;;;;;;;5019663;28;92328;-71
2022/01/12 09:21:50;;;;;;;37.67;14.43;;;;;;;;;;5017972;28;96011;-71
2022/01/12 09:24:17;;;;;;;43.67;14.75;;;;;;;;;;5016630;28;92630;-70
2022/01/12 09:26:44;;;;;;;45.10;15.00;;;;;;;;;;4999490;28;93570;-70
2022/01/12 09:29:10;;;;;;;54.20;16.73;;;;;;;;;;4998990;28;92619;-70
2022/01/12 09:31:36;;;;;;;51.38;15.32;;;;;;;;;;5012426;28;92360;-70
2022/01/12 09:34:03;;;;;;;52.58;16.38;;;;;;;;;;5019016;28;93357;-69
2022/01/12 09:36:30;;;;;;;42.65;14.77;;;;;;;;;;5018156;28;94983;-72
2022/01/12 09:38:57;;;;;;;44.20;14.63;;;;;;;;;;5022770;28;91546;-72
2022/01/12 09:41:25;;;;;;;48.92;14.73;;;;;;;;;;5017950;28;94469;-71
2022/01/12 09:43:52;;;;;;;42.28;14.30;;;;;;;;;;5019380;28;92251;-71
2022/01/12 09:46:19;;;;;;;45.45;14.13;;;;;;;;;;5017995;28;94620;-73
2022/01/12 09:48:45;;;;;;;48.30;16.40;;;;;;;;;;5017942;28;93908;-72
2022/01/12 09:51:11;;;;;;;39.85;12.75;;;;;;;;;;5019127;28;92362;-69
2022/01/12 09:53:39;;;;;;;40.53;13.70;;;;;;;;;;5019443;28;92471;-72
2022/01/12 09:56:16;;;;;;;42.65;12.52;;;;;;;;;;5019316;28;93666;-72
2022/01/12 09:58:45;;;;;;;49.60;14.38;;;;;;;;;;5017656;28;92689;-71
2022/01/12 10:01:11;;;;;;;37.05;12.90;;;;;;;;;;5020658;28;94669;-71
2022/01/12 10:03:38;;;;;;;37.95;12.27;;;;;;;;;;5019621;28;91647;-71
2022/01/12 10:06:12;;;;;;;39.55;12.98;;;;;;;;;;5019060;28;93300;-71
2022/01/12 10:08:38;;;;;;;40.83;13.05;;;;;;;;;;5018840;28;94088;-71
2022/01/12 10:11:06;;;;;;;40.70;13.50;;;;;;;;;;5017442;28;94660;-69
2022/01/12 10:13:37;;;;;;;43.05;13.70;;;;;;;;;;5017264;28;98214;-72
2022/01/12 10:16:11;;;;;;;35.78;12.70;;;;;;;;;;5018413;28;94522;-71
2022/01/12 10:18:45;;;;;;;37.03;12.90;;;;;;;;;;5018205;28;92509;-71
2022/01/12 10:21:11;;;;;;;34.40;12.75;;;;;;;;;;5018733;28;93425;-71
2022/01/12 10:23:40;;;;;;;34.83;12.25;;;;;;;;;;5021922;28;92659;-71
2022/01/12 10:26:06;;;;;;;32.75;12.48;;;;;;;;;;5018408;28;93427;-71
2022/01/12 10:28:35;;;;;;;38.83;12.27;;;;;;;;;;5018086;28;95141;-71
2022/01/12 10:31:02;;;;;;;35.15;11.98;;;;;;;;;;5017754;28;92408;-71
2022/01/12 10:33:33;;;;;;;33.15;12.20;;;;;;;;;;5018686;28;93717;-71
2022/01/12 10:36:02;;;;;;;44.40;12.57;;;;;;;;;;5016764;28;96499;-71
2022/01/12 10:38:29;;;;;;;39.47;14.02;;;;;;;;;;5018164;28;92345;-72
2022/01/12 10:40:56;;;;;;;31.20;11.60;;;;;;;;;;5018266;28;93057;-71
2022/01/12 10:43:28;;;;;;;37.70;11.95;;;;;;;;;;5018269;28;93167;-71
2022/01/12 10:45:55;;;;;;;34.70;12.45;;;;;;;;;;5021589;28;92286;-71
2022/01/12 10:48:24;;;;;;;32.92;11.32;;;;;;;;;;5018311;28;93219;-71
2022/01/12 10:50:58;;;;;;;40.00;12.95;;;;;;;;;;5018194;28;92208;-70
2022/01/12 10:53:28;;;;;;;29.90;11.40;;;;;;;;;;5018369;28;93828;-70
2022/01/12 10:56:01;;;;;;;31.52;10.95;;;;;;;;;;5017928;28;93561;-70
2022/01/12 10:58:28;;;;;;;36.85;11.95;;;;;;;;;;5017999;28;92165;-71
2022/01/12 11:00:56;;;;;;;35.35;11.63;;;;;;;;;;5016531;28;94786;-71
2022/01/12 11:03:23;;;;;;;36.58;12.07;;;;;;;;;;5017837;28;93465;-70
2022/01/12 11:05:50;;;;;;;23.33;11.15;;;;;;;;;;5017895;28;92785;-73
2022/01/12 11:08:18;;;;;;;36.55;12.63;;;;;;;;;;5020751;28;93042;-71
2022/01/12 11:10:45;;;;;;;29.67;11.85;;;;;;;;;;5017898;28;92431;-70
2022/01/12 11:13:12;;;;;;;38.83;12.45;;;;;;;;;;5018051;28;93639;-73
2022/01/12 11:15:38;;;;;;;33.45;12.70;;;;;;;;;;5017798;28;93707;-75
2022/01/12 11:18:05;;;;;;;31.92;10.88;;;;;;;;;;5017802;28;91818;-72
2022/01/12 11:20:32;;;;;;;30.77;11.68;;;;;;;;;;5017621;28;93095;-70
2022/01/12 11:22:59;;;;;;;28.52;10.63;;;;;;;;;;5017932;28;93601;-70
2022/01/12 11:25:34;;;;;;;28.23;10.82;;;;;;;;;;5016069;28;94667;-70
2022/01/12 11:28:09;;;;;;;29.70;11.32;;;;;;;;;;5020779;28;95657;-71
2022/01/12 11:30:37;;;;;;;30.90;10.48;;;;;;;;;;5017755;28;92237;-71
2022/01/12 11:33:13;;;;;;;26.65;10.88;;;;;;;;;;5017466;28;93652;-72
2022/01/12 11:35:41;;;;;;;28.65;10.95;;;;;;;;;;5017560;28;93625;-71
2022/01/12 11:38:18;;;;;;;31.63;11.15;;;;;;;;;;5017575;28;92392;-71
2022/01/12 11:40:46;;;;;;;34.90;10.95;;;;;;;;;;5017637;28;93413;-70
2022/01/12 11:43:19;;;;;;;30.13;11.05;;;;;;;;;;5016289;28;93053;-70
2022/01/12 11:45:58;;;;;;;28.05;10.50;;;;;;;;;;5017390;28;93144;-70
2022/01/12 11:48:29;;;;;;;29.13;10.88;;;;;;;;;;5017772;28;93454;-71
2022/01/12 11:50:56;;;;;;;33.28;11.02;;;;;;;;;;5018762;28;95939;-71
2022/01/12 11:53:23;;;;;;;33.42;11.35;;;;;;;;;;5016980;28;95866;-71
2022/01/12 11:55:49;;;;;;;30.60;10.75;;;;;;;;;;5015602;28;93290;-70
2022/01/12 11:58:17;;;;;;;27.13;11.23;;;;;;;;;;5011553;28;93020;-71
2022/01/12 12:00:44;;;;;;;33.33;11.02;;;;;;;;;;5017055;28;93083;-71
2022/01/12 12:03:15;;;;;;;36.20;10.80;;;;;;;;;;5017048;28;93564;-72
2022/01/12 12:05:42;;;;;;;32.88;10.98;;;;;;;;;;5016946;28;92360;-72
2022/01/12 12:08:08;;;;;;;28.40;11.27;;;;;;;;;;5017676;28;93473;-72
2022/01/12 12:10:35;;;;;;;29.83;11.43;;;;;;;;;;5016603;28;92872;-72
2022/01/12 12:13:03;;;;;;;26.30;10.40;;;;;;;;;;5020033;28;92363;-71
2022/01/12 12:15:30;;;;;;;30.17;11.10;;;;;;;;;;5015193;28;95792;-72
2022/01/12 12:18:04;;;;;;;28.65;11.10;;;;;;;;;;5016537;28;92522;-71
2022/01/12 12:20:31;;;;;;;27.10;10.85;;;;;;;;;;5016875;28;93405;-71
2022/01/12 12:22:58;;;;;;;29.85;11.23;;;;;;;;;;5016152;28;93215;-71
2022/01/12 12:25:25;;;;;;;29.77;11.02;;;;;;;;;;5016963;28;92310;-71
2022/01/12 12:27:53;;;;;;;26.38;10.60;;;;;;;;;;5004095;28;93632;-71
2022/01/12 12:30:20;;;;;;;27.30;10.25;;;;;;;;;;4996870;28;93970;-72
2022/01/12 12:32:48;;;;;;;26.80;10.70;;;;;;;;;;4997391;28;91762;-71
2022/01/12 12:35:19;;;;;;;26.65;10.57;;;;;;;;;;4999751;28;92486;-71
2022/01/12 12:37:47;;;;;;;28.10;11.10;;;;;;;;;;4996549;28;92291;-72
2022/01/12 12:40:18;;;;;;;30.83;11.10;;;;;;;;;;4995120;28;94596;-71
2022/01/12 12:42:49;;;;;;;21.15;9.35;;;;;;;;;;4996292;28;93523;-71
2022/01/12 12:45:16;;;;;;;36.27;10.80;;;;;;;;;;4997387;28;92230;-71
2022/01/12 12:47:43;;;;;;;28.63;10.45;;;;;;;;;;4996633;28;93725;-72
2022/01/12 12:50:12;;;;;;;32.00;11.85;;;;;;;;;;4995995;28;94124;-71
2022/01/12 12:52:39;;;;;;;34.35;11.40;;;;;;;;;;4996631;28;92343;-71
2022/01/12 12:55:13;;;;;;;30.80;11.70;;;;;;;;;;4995973;28;93506;-71
2022/01/12 12:57:51;;;;;;;25.55;10.52;;;;;;;;;;4999924;28;93335;-71
2022/01/12 13:00:20;;;;;;;30.13;11.35;;;;;;;;;;4996599;28;92446;-71
2022/01/12 13:02:48;;;;;;;29.65;11.43;;;;;;;;;;4995968;28;93683;-71
2022/01/12 13:05:19;;;;;;;27.25;10.65;;;;;;;;;;4994774;28;94806;-71
2022/01/12 13:07:46;;;;;;;30.07;10.97;;;;;;;;;;4996535;28;96237;-71
2022/01/12 13:10:15;;;;;;;25.33;10.60;;;;;;;;;;4996133;28;93707;-72
2022/01/12 13:12:45;;;;;;;31.70;11.68;;;;;;;;;;4996199;28;92180;-72
2022/01/12 13:15:22;;;;;;;25.25;10.38;;;;;;;;;;4995726;28;93330;-71
2022/01/12 13:17:56;;;;;;;27.08;10.38;;;;;;;;;;4994408;28;94163;-72
2022/01/12 13:22:51;;;;;;;31.08;10.93;;;;;;;;;;4996434;28;93208;-71
2022/01/12 13:25:17;;;;;;;29.25;10.38;;;;;;;;;;4996122;28;92987;-71
2022/01/12 13:27:46;;;;;;;29.35;11.15;;;;;;;;;;4995612;28;93426;-71
2022/01/12 13:30:23;;;;;;;25.58;11.05;;;;;;;;;;4994118;28;96109;-70
2022/01/12 13:32:51;;;;;;;29.00;11.65;;;;;;;;;;4996406;28;92342;-72
2022/01/12 13:35:24;;;;;;;34.08;13.93;;;;;;;;;;5016040;28;92947;-71
2022/01/12 13:37:54;;;;;;;29.70;13.05;;;;;;;;;;5015977;28;93688;-70
2022/01/12 13:40:41;;;;;;;30.35;13.35;;;;;;;;;;5018986;28;92138;-70
2022/01/12 13:43:08;;;;;;;33.35;12.95;;;;;;;;;;5015756;28;93664;-70
2022/01/12 13:45:41;;;;;;;29.25;12.10;;;;;;;;;;5015747;28;92376;-71
2022/01/12 13:48:13;;;;;;;36.42;13.23;;;;;;;;;;5016345;28;93440;-70
2022/01/12 13:50:41;;;;;;;34.70;13.20;;;;;;;;;;5015315;28;93242;-71
2022/01/12 13:53:07;;;;;;;28.85;13.18;;;;;;;;;;5015898;28;92360;-71
2022/01/12 13:55:35;;;;;;;26.00;12.10;;;;;;;;;;5014352;28;94557;-70
2022/01/12 13:58:06;;;;;;;34.88;13.52;;;;;;;;;;5015745;28;93908;-71
2022/01/12 14:00:35;;;;;;;36.47;14.57;;;;;;;;;;5015541;28;92218;-71
2022/01/12 14:03:12;;;;;;;31.58;13.45;;;;;;;;;;5017626;28;93028;-71
2022/01/12 14:05:39;;;;;;;26.30;13.57;;;;;;;;;;5016129;28;92766;-73
2022/01/12 14:08:14;;;;;;;33.38;13.45;;;;;;;;;;4999515;28;93601;-71
2022/01/12 14:10:40;;;;;;;;;;;;;;;;;;4999098;28;93653;-69
2022/01/12 14:13:08;;;;;;;29.10;14.18;;;;;;;;;;4998945;28;118987;-71
2022/01/12 14:15:34;;;;;;;32.63;14.38;;;;;;;;;;4998669;28;92812;-72
2022/01/12 14:18:01;;;;;;;31.67;14.60;;;;;;;;;;4998254;28;94114;-71
2022/01/12 14:20:36;;;;;;;33.60;14.93;;;;;;;;;;4997207;28;94752;-71
2022/01/12 14:23:05;;;;;;;44.15;16.92;;;;;;;;;;4998670;28;95811;-72
2022/01/12 14:25:38;;;;;;;36.55;16.80;;;;;;;;;;5001979;28;93619;-70
2022/01/12 14:28:05;;;;;;;47.63;17.40;;;;;;;;;;4998480;28;93553;-70
2022/01/12 14:30:31;;;;;;;37.67;18.55;;;;;;;;;;4997285;28;95188;-71
2022/01/12 14:32:57;;;;;;;42.60;19.70;;;;;;;;;;4998675;28;92403;-70
2022/01/12 14:35:25;;;;;;;43.58;20.38;;;;;;;;;;4998582;28;93018;-73
2022/01/12 14:37:52;;;;;;;41.75;19.58;;;;;;;;;;4998940;28;93276;-70
2022/01/12 14:40:19;;;;;;;42.40;19.13;;;;;;;;;;4998488;28;92335;-71
2022/01/12 14:42:47;;;;;;;42.63;19.17;;;;;;;;;;4997883;28;93479;-71
2022/01/12 14:45:15;;;;;;;40.92;20.48;;;;;;;;;;4996710;28;96031;-71
2022/01/12 14:47:42;;;;;;;44.75;20.75;;;;;;;;;;5001380;28;93864;-72
2022/01/12 14:50:08;;;;;;;50.85;22.17;;;;;;;;;;4998404;28;93553;-72
2022/01/12 14:52:35;;;;;;;47.25;20.40;;;;;;;;;;4998153;28;92274;-71
2022/01/12 14:55:03;;;;;;;44.40;19.10;;;;;;;;;;4997332;28;93635;-71
2022/01/12 14:57:29;;;;;;;52.50;19.75;;;;;;;;;;4997723;28;93637;-72
2022/01/12 14:59:55;;;;;;;40.72;19.23;;;;;;;;;;4996595;28;92289;-71
2022/01/12 15:02:22;;;;;;;44.92;19.90;;;;;;;;;;5006030;28;93927;-72
2022/01/12 15:04:48;;;;;;;42.90;19.40;;;;;;;;;;4998039;28;93668;-71
2022/01/12 15:07:15;;;;;;;49.30;21.27;;;;;;;;;;4998051;28;93283;-71
2022/01/12 15:09:42;;;;;;;45.13;20.83;;;;;;;;;;4999482;28;94663;-72
2022/01/12 15:12:14;;;;;;;48.33;21.92;;;;;;;;;;4997724;28;92307;-72
2022/01/12 15:17:08;;;;;;;45.55;19.98;;;;;;;;;;4997483;28;93661;-71
2022/01/12 15:19:34;;;;;;;41.65;21.17;;;;;;;;;;4997584;28;92292;-72
2022/01/12 15:22:01;;;;;;;44.17;20.08;;;;;;;;;;4997734;28;93122;-72
2022/01/12 15:24:29;;;;;;;47.15;20.65;;;;;;;;;;4997208;28;93259;-72
2022/01/12 15:26:55;;;;;;;44.60;20.05;;;;;;;;;;4997063;28;91486;-73
2022/01/12 15:29:22;;;;;;;42.63;19.95;;;;;;;;;;4996727;28;95509;-72
2022/01/12 15:31:48;;;;;;;40.03;18.90;;;;;;;;;;5000304;28;93460;-72
2022/01/12 15:34:15;;;;;;;35.05;17.13;;;;;;;;;;4996151;28;94664;-72
2022/01/12 15:36:41;;;;;;;33.53;17.77;;;;;;;;;;4997385;28;93738;-72